createdAt,value
2022-07-29T00:00:32.387Z,100472.85
2022-07-29T00:01:32.291Z,100474.46
2022-07-29T00:02:33.296Z,100469.87
2022-07-29T00:03:33.389Z,100472.47
2022-07-29T00:04:36.562Z,100469.78
2022-07-29T00:05:34.266Z,100473.11
2022-07-29T00:06:34.526Z,100473.7
2022-07-29T00:07:35.195Z,100471.96
2022-07-29T00:08:35.413Z,100475.89
2022-07-29T00:09:50.608Z,100474.91
2022-07-29T00:10:39.351Z,100480.13
2022-07-29T00:11:39.400Z,100480.64
2022-07-29T00:12:39.734Z,100480.11
2022-07-29T00:13:40.249Z,100478.11
2022-07-29T00:14:40.562Z,100480.48
2022-07-29T00:15:41.283Z,100480.45
2022-07-29T00:16:41.626Z,100481.97
2022-07-29T00:17:42.023Z,100482.21
2022-07-29T00:18:42.229Z,100481.74
2022-07-29T00:19:45.634Z,100485.39
2022-07-29T00:20:43.367Z,100485.73
2022-07-29T00:21:44.101Z,100487.98
2022-07-29T00:22:44.367Z,100485.71
2022-07-29T00:23:44.637Z,100489.56
2022-07-29T00:24:45.031Z,100490.56
2022-07-29T00:25:45.650Z,100490.36
2022-07-29T00:26:45.874Z,100489.77
2022-07-29T00:27:46.384Z,100489.09
2022-07-29T00:28:46.694Z,100484.44
2022-07-29T00:29:47.216Z,100484.2
2022-07-29T00:30:47.829Z,100490.89
2022-07-29T00:31:48.229Z,100482.19
2022-07-29T00:32:48.595Z,100486.07
2022-07-29T00:33:48.887Z,100487.1
2022-07-29T00:34:49.415Z,100483.48
2022-07-29T00:35:50.022Z,100483.09
2022-07-29T00:36:50.227Z,100485.89
2022-07-29T00:37:50.855Z,100485.3
2022-07-29T00:38:52.191Z,100486.7
2022-07-29T00:39:51.993Z,100484.98
2022-07-29T00:40:52.202Z,100490.67
2022-07-29T00:41:52.854Z,100490.63
2022-07-29T00:42:53.757Z,100491.88
2022-07-29T00:43:53.345Z,100493.25
2022-07-29T00:44:53.866Z,100490.05
2022-07-29T00:45:54.285Z,100485.91
2022-07-29T00:46:54.853Z,100487.65
2022-07-29T00:47:55.010Z,100485.36
2022-07-29T00:48:55.681Z,100484.11
2022-07-29T00:49:56.056Z,100485.75
2022-07-29T00:50:59.140Z,100478.36
2022-07-29T00:51:57.139Z,100479.06
2022-07-29T00:52:57.304Z,100478.7
2022-07-29T00:53:57.711Z,100475.14
2022-07-29T00:54:58.856Z,100480.66
2022-07-29T00:55:59.690Z,100478.88
2022-07-29T00:57:02.791Z,100482.59
2022-07-29T00:58:00.815Z,100479.11
2022-07-29T00:59:01.126Z,100481.92
2022-07-29T01:00:01.447Z,100483.53
2022-07-29T01:01:01.760Z,100482.75
2022-07-29T01:02:02.889Z,100481.12
2022-07-29T01:03:02.694Z,100480.98
2022-07-29T01:04:02.946Z,100479.98
2022-07-29T01:05:05.574Z,100481.45
2022-07-29T01:06:04.567Z,100485.34
2022-07-29T01:07:05.179Z,100482.49
2022-07-29T01:08:05.597Z,100483.54
2022-07-29T01:09:05.511Z,100486.28
2022-07-29T01:10:08.986Z,100482.33
2022-07-29T01:11:06.835Z,100482.3
2022-07-29T01:12:08.229Z,100481.99
2022-07-29T01:13:08.550Z,100483.46
2022-07-29T01:14:09.527Z,100484.06
2022-07-29T01:15:09.695Z,100487.58
2022-07-29T01:16:15.931Z,100485.83
2022-07-29T01:17:27.154Z,100480.24
2022-07-29T01:30:47.525Z,100489.55
2022-07-29T01:34:54.403Z,100486.3
2022-07-29T01:35:52.157Z,100486.34
2022-07-29T01:40:04.569Z,100487.98
2022-07-29T01:51:41.196Z,100498.88
2022-07-29T01:52:43.775Z,100497.87
2022-07-29T01:53:43.363Z,100500.54
2022-07-29T01:54:46.760Z,100500.14
2022-07-29T01:55:47.128Z,100499.61
2022-07-29T01:56:48.616Z,100497.06
2022-07-29T01:57:48.846Z,100496.91
2022-07-29T01:58:49.351Z,100498.55
2022-07-29T01:59:49.759Z,100502.77
2022-07-29T02:00:51.501Z,100502.43
2022-07-29T02:01:52.019Z,100503
2022-07-29T02:02:54.993Z,100501.26
2022-07-29T02:03:55.938Z,100505.55
2022-07-29T02:04:55.529Z,100504.91
2022-07-29T02:05:55.845Z,100506.02
2022-07-29T02:06:58.122Z,100507.55
2022-07-29T02:07:58.927Z,100510.67
2022-07-29T02:08:59.539Z,100508.23
2022-07-29T02:09:59.205Z,100512.38
2022-07-29T02:11:00.586Z,100512.92
2022-07-29T02:12:00.592Z,100509.41
2022-07-29T02:13:00.598Z,100510.88
2022-07-29T02:14:01.416Z,100509.5
2022-07-29T02:15:01.634Z,100517.23
2022-07-29T02:16:01.791Z,100509.34
2022-07-29T02:17:03.075Z,100512.82
2022-07-29T02:18:08.839Z,100513.49
2022-07-29T02:19:04.010Z,100512.02
2022-07-29T02:20:04.737Z,100513.59
2022-07-29T02:21:04.018Z,100513.09
2022-07-29T02:22:03.733Z,100509.41
2022-07-29T02:23:04.663Z,100510.45
2022-07-29T02:24:06.539Z,100508.53
2022-07-29T02:25:06.604Z,100514.99
2022-07-29T02:26:08.455Z,100520.38
2022-07-29T02:27:09.487Z,100517.06
2022-07-29T02:28:08.481Z,100519.23
2022-07-29T02:29:09.874Z,100517.56
2022-07-29T02:30:09.516Z,100516.89
2022-07-29T02:31:10.141Z,100519.2
2022-07-29T02:32:11.267Z,100518.73
2022-07-29T02:33:13.217Z,100519.97
2022-07-29T02:34:13.322Z,100522.11
2022-07-29T02:35:13.745Z,100520.53
2022-07-29T02:36:12.538Z,100515.95
2022-07-29T02:37:13.847Z,100514.67
2022-07-29T02:38:16.736Z,100521.57
2022-07-29T02:39:16.224Z,100520.8
2022-07-29T02:40:17.668Z,100519.79
2022-07-29T02:41:19.738Z,100521.33
2022-07-29T02:42:19.635Z,100523.77
2022-07-29T02:43:20.246Z,100522.87
2022-07-29T02:44:21.888Z,100524.3
2022-07-29T02:45:19.757Z,100525.64
2022-07-29T02:46:29.188Z,100521.92
2022-07-29T02:47:28.053Z,100526.77
2022-07-29T02:48:35.186Z,100531.18
2022-07-29T02:50:35.851Z,100532.03
2022-07-29T02:51:45.167Z,100534.41
2022-07-29T02:52:51.493Z,100531.58
2022-07-29T02:53:42.982Z,100533.69
2022-07-29T02:54:53.023Z,100532.55
2022-07-29T02:55:56.261Z,100530.34
2022-07-29T02:56:50.335Z,100534.02
2022-07-29T02:57:55.811Z,100533.75
2022-07-29T02:58:59.564Z,100536.38
2022-07-29T03:00:02.249Z,100538.3
2022-07-29T03:01:04.187Z,100535.62
2022-07-29T03:02:06.636Z,100538.12
2022-07-29T03:03:07.632Z,100536.67
2022-07-29T03:04:06.048Z,100542.12
2022-07-29T03:05:09.173Z,100542.23
2022-07-29T03:06:09.374Z,100543.12
2022-07-29T03:07:14.047Z,100542.91
2022-07-29T03:08:12.838Z,100544.33
2022-07-29T03:09:14.275Z,100545.11
2022-07-29T03:10:14.174Z,100544.97
2022-07-29T03:11:14.754Z,100547.23
2022-07-29T03:12:15.126Z,100545.67
2022-07-29T03:13:15.111Z,100552.7
2022-07-29T03:14:15.894Z,100550.75
2022-07-29T03:15:15.844Z,100553.83
2022-07-29T03:16:16.817Z,100552.05
2022-07-29T03:17:16.373Z,100552.36
2022-07-29T03:18:16.582Z,100553.78
2022-07-29T03:19:18.374Z,100555.73
2022-07-29T03:20:17.831Z,100551.41
2022-07-29T03:21:17.927Z,100555.91
2022-07-29T03:22:19.134Z,100555.42
2022-07-29T03:25:24.205Z,100558.17
2022-07-29T03:26:24.733Z,100556.59
2022-07-29T03:27:25.149Z,100559.44
2022-07-29T03:28:26.186Z,100558.2
2022-07-29T03:29:33.803Z,100558.42
2022-07-29T03:30:27.205Z,100558.77
2022-07-29T03:31:27.262Z,100562.95
2022-07-29T03:32:27.625Z,100561.52
2022-07-29T03:33:28.165Z,100559.04
2022-07-29T03:34:28.672Z,100561.22
2022-07-29T03:35:29.395Z,100561.12
2022-07-29T03:36:29.392Z,100558.27
2022-07-29T03:37:30.015Z,100558.03
2022-07-29T03:38:34.016Z,100558.2
2022-07-29T03:39:36.378Z,100564.04
2022-07-29T03:41:41.104Z,100565.67
2022-07-29T03:42:43.769Z,100563.17
2022-07-29T03:43:49.033Z,100564.98
2022-07-29T03:44:45.320Z,100569.58
2022-07-29T03:45:46.782Z,100568.65
2022-07-29T03:46:45.805Z,100568.33
2022-07-29T03:47:54.736Z,100572.02
2022-07-29T03:48:49.423Z,100571.88
2022-07-29T03:49:51.508Z,100569.35
2022-07-29T03:50:51.525Z,100576.01
2022-07-29T03:51:49.671Z,100573
2022-07-29T03:52:50.697Z,100577.98
2022-07-29T03:53:50.403Z,100575.42
2022-07-29T03:54:51.114Z,100574.92
2022-07-29T03:55:55.984Z,100579.33
2022-07-29T03:56:55.234Z,100578.64
2022-07-29T03:57:56.668Z,100583.12
2022-07-29T03:58:55.605Z,100580.64
2022-07-29T03:59:56.177Z,100575.69
2022-07-29T04:00:56.383Z,100576.56
2022-07-29T04:01:58.105Z,100574.81
2022-07-29T04:02:57.856Z,100576.59
2022-07-29T04:03:57.744Z,100576.03
2022-07-29T04:04:57.738Z,100579.04
2022-07-29T04:06:06.250Z,100577.08
2022-07-29T04:06:58.786Z,100578.41
2022-07-29T04:07:59.156Z,100585.33
2022-07-29T04:08:59.626Z,100583.61
2022-07-29T04:10:00.037Z,100587.2
2022-07-29T04:11:01.571Z,100588.59
2022-07-29T04:12:02.872Z,100588.33
2022-07-29T04:13:02.598Z,100588.46
2022-07-29T04:14:02.415Z,100587.73
2022-07-29T04:15:05.094Z,100586.89
2022-07-29T04:16:03.494Z,100587.71
2022-07-29T04:17:04.779Z,100590.14
2022-07-29T04:18:04.529Z,100589.05
2022-07-29T04:19:04.489Z,100586.76
2022-07-29T04:20:06.027Z,100588.01
2022-07-29T04:21:05.336Z,100585.11
2022-07-29T04:22:06.572Z,100590.3
2022-07-29T04:23:06.772Z,100594.22
2022-07-29T04:24:08.412Z,100594.88
2022-07-29T04:25:08.220Z,100593.78
2022-07-29T04:26:07.944Z,100596.05
2022-07-29T04:27:08.633Z,100598.92
2022-07-29T04:28:09.603Z,100597.16
2022-07-29T04:29:09.391Z,100596.94
2022-07-29T04:30:10.704Z,100596.05
2022-07-29T04:31:11.004Z,100594.02
2022-07-29T04:32:11.029Z,100595.6
2022-07-29T04:33:11.769Z,100595.11
2022-07-29T04:34:13.457Z,100596.44
2022-07-29T04:35:12.194Z,100598.78
2022-07-29T04:36:28.638Z,100594.59
2022-07-29T04:37:17.444Z,100595.41
2022-07-29T04:38:18.152Z,100591.45
2022-07-29T04:39:22.684Z,100599.44
2022-07-29T04:40:21.993Z,100597.94
2022-07-29T04:41:21.116Z,100596.94
2022-07-29T04:42:27.614Z,100599.12
2022-07-29T04:43:26.031Z,100598.7
2022-07-29T04:44:28.428Z,100603.77
2022-07-29T04:45:26.779Z,100600.3
2022-07-29T04:46:27.357Z,100598.95
2022-07-29T04:47:27.508Z,100600.88
2022-07-29T04:48:28.916Z,100600.62
2022-07-29T04:49:28.463Z,100600.16
2022-07-29T04:50:28.862Z,100602.77
2022-07-29T04:51:29.173Z,100602.54
2022-07-29T04:52:29.793Z,100597.23
2022-07-29T04:53:30.224Z,100599.09
2022-07-29T04:54:30.634Z,100602.39
2022-07-29T04:55:30.945Z,100602.13
2022-07-29T04:56:31.459Z,100603.65
2022-07-29T04:57:32.187Z,100603.72
2022-07-29T04:58:32.390Z,100606.05
2022-07-29T04:59:32.654Z,100604.06
2022-07-29T05:00:33.422Z,100602.35
2022-07-29T05:01:33.427Z,100611.69
2022-07-29T05:02:34.326Z,100610.95
2022-07-29T05:03:34.373Z,100608.44
2022-07-29T05:04:34.892Z,100609.88
2022-07-29T05:05:35.427Z,100608.73
2022-07-29T05:06:35.828Z,100612.97
2022-07-29T05:07:36.161Z,100612.91
2022-07-29T05:08:36.765Z,100613.61
2022-07-29T05:09:37.279Z,100612.74
2022-07-29T05:10:37.459Z,100613.95
2022-07-29T05:11:37.797Z,100615.76
2022-07-29T05:12:38.318Z,100619.77
2022-07-29T05:13:46.143Z,100615.14
2022-07-29T05:14:39.660Z,100616.55
2022-07-29T05:15:40.080Z,100615.91
2022-07-29T05:16:40.395Z,100618.09
2022-07-29T05:17:40.906Z,100614.18
2022-07-29T05:18:41.458Z,100616.36
2022-07-29T05:19:41.769Z,100619.98
2022-07-29T05:20:42.684Z,100623.45
2022-07-29T05:21:42.475Z,100617.46
2022-07-29T05:22:42.888Z,100619.14
2022-07-29T05:23:43.403Z,100621.02
2022-07-29T05:24:43.936Z,100619.58
2022-07-29T05:25:45.027Z,100624.23
2022-07-29T05:26:44.756Z,100624.5
2022-07-29T05:27:45.286Z,100624.64
2022-07-29T05:28:45.754Z,100621.05
2022-07-29T05:29:46.127Z,100622.8
2022-07-29T05:30:47.088Z,100620.89
2022-07-29T05:31:46.945Z,100619.78
2022-07-29T05:32:47.562Z,100618.23
2022-07-29T05:33:47.712Z,100618.46
2022-07-29T05:34:51.318Z,100615.56
2022-07-29T05:35:49.343Z,100620.34
2022-07-29T05:36:49.704Z,100621.16
2022-07-29T05:37:50.213Z,100621.36
2022-07-29T05:38:50.676Z,100622.33
2022-07-29T05:39:57.228Z,100619.64
2022-07-29T05:40:51.615Z,100617.93
2022-07-29T05:41:52.258Z,100623.11
2022-07-29T05:42:52.548Z,100621.62
2022-07-29T05:43:52.877Z,100624.72
2022-07-29T05:44:53.789Z,100621.19
2022-07-29T05:45:54.068Z,100622.09
2022-07-29T05:46:54.417Z,100622.45
2022-07-29T05:47:54.850Z,100625.73
2022-07-29T05:48:55.276Z,100621.56
2022-07-29T05:49:55.763Z,100621.81
2022-07-29T05:50:56.070Z,100624.86
2022-07-29T05:51:56.491Z,100627.48
2022-07-29T05:52:56.918Z,100629.91
2022-07-29T05:53:57.273Z,100625.96
2022-07-29T05:54:57.851Z,100625.34
2022-07-29T05:55:58.570Z,100629.62
2022-07-29T05:56:58.677Z,100628.56
2022-07-29T05:57:59.097Z,100625.05
2022-07-29T05:59:00.334Z,100623.55
2022-07-29T06:00:00.844Z,100625.6
2022-07-29T06:01:01.335Z,100625.78
2022-07-29T06:02:01.684Z,100622.36
2022-07-29T06:03:02.192Z,100628.13
2022-07-29T06:04:02.708Z,100628.08
2022-07-29T06:05:03.340Z,100629.3
2022-07-29T06:06:03.400Z,100630.17
2022-07-29T06:07:04.180Z,100622.99
2022-07-29T06:08:05.211Z,100625.48
2022-07-29T06:09:12.441Z,100629.55
2022-07-29T06:10:06.449Z,100627.14
2022-07-29T06:11:06.141Z,100628.73
2022-07-29T06:12:06.868Z,100624.95
2022-07-29T06:13:06.876Z,100629.75
2022-07-29T06:14:07.390Z,100624.31
2022-07-29T06:15:08.825Z,100624.81
2022-07-29T06:16:08.345Z,100625.42
2022-07-29T06:17:08.855Z,100628.78
2022-07-29T06:18:09.481Z,100625.67
2022-07-29T06:19:09.681Z,100630.59
2022-07-29T06:20:11.116Z,100628.08
2022-07-29T06:21:11.025Z,100624.5
2022-07-29T06:22:10.926Z,100628.12
2022-07-29T06:23:11.353Z,100621.87
2022-07-29T06:24:12.783Z,100624.16
2022-07-29T06:25:12.283Z,100623.69
2022-07-29T06:26:12.896Z,100631.15
2022-07-29T06:27:13.217Z,100629.23
2022-07-29T06:28:13.828Z,100626.16
2022-07-29T06:29:14.246Z,100627.59
2022-07-29T06:30:14.560Z,100627.2
2022-07-29T06:31:15.200Z,100625.48
2022-07-29T06:32:15.493Z,100624.81
2022-07-29T06:33:19.702Z,100629.62
2022-07-29T06:34:17.742Z,100628.88
2022-07-29T06:35:40.974Z,100634.73
2022-07-29T06:36:20.444Z,100632.59
2022-07-29T06:37:20.751Z,100629.66
2022-07-29T06:38:33.949Z,100636.55
2022-07-29T06:39:22.215Z,100635.24
2022-07-29T06:40:22.563Z,100641.83
2022-07-29T06:41:25.589Z,100636.36
2022-07-29T06:42:23.545Z,100638.44
2022-07-29T06:43:23.867Z,100635.61
2022-07-29T06:44:24.477Z,100638.58
2022-07-29T06:45:24.798Z,100639.09
2022-07-29T06:46:26.394Z,100642.4
2022-07-29T06:47:26.603Z,100640.55
2022-07-29T06:48:27.070Z,100644.27
2022-07-29T06:49:27.437Z,100648
2022-07-29T06:50:27.815Z,100646.5
2022-07-29T06:51:30.063Z,100644.16
2022-07-29T06:52:28.734Z,100646.98
2022-07-29T06:53:30.071Z,100644.23
2022-07-29T06:54:29.672Z,100644.42
2022-07-29T06:55:30.194Z,100650.17
2022-07-29T06:56:31.729Z,100654.33
2022-07-29T06:57:31.324Z,100649.06
2022-07-29T06:58:31.851Z,100651.62
2022-07-29T06:59:35.785Z,100650.66
2022-07-29T07:00:33.578Z,100652.11
2022-07-29T07:01:34.342Z,100648.33
2022-07-29T07:02:34.590Z,100650.12
2022-07-29T07:03:35.161Z,100647.91
2022-07-29T07:04:35.479Z,100643.23
2022-07-29T07:05:36.098Z,100641.18
2022-07-29T07:06:36.917Z,100646.78
2022-07-29T07:07:37.129Z,100649.62
2022-07-29T07:08:37.439Z,100648.05
2022-07-29T07:09:40.624Z,100652.09
2022-07-29T07:10:38.785Z,100655.8
2022-07-29T07:11:38.994Z,100647.45
2022-07-29T07:12:39.666Z,100648.45
2022-07-29T07:13:39.930Z,100651.78
2022-07-29T07:14:40.548Z,100654.53
2022-07-29T07:15:41.274Z,100649.63
2022-07-29T07:16:41.495Z,100646.13
2022-07-29T07:17:41.691Z,100644.31
2022-07-29T07:18:42.523Z,100645.12
2022-07-29T07:19:42.958Z,100653.2
2022-07-29T07:20:44.283Z,100640.95
2022-07-29T07:21:43.775Z,100645.72
2022-07-29T07:22:44.194Z,100640.12
2022-07-29T07:23:44.616Z,100646.22
2022-07-29T07:24:45.224Z,100649.95
2022-07-29T07:25:45.549Z,100657.62
2022-07-29T07:26:46.489Z,100650.28
2022-07-29T07:27:46.575Z,100647.78
2022-07-29T07:28:46.787Z,100642.27
2022-07-29T07:29:47.201Z,100640.81
2022-07-29T07:30:48.048Z,100648.61
2022-07-29T07:31:48.292Z,100648.14
2022-07-29T07:32:48.963Z,100647.33
2022-07-29T07:33:49.325Z,100642.29
2022-07-29T07:34:49.695Z,100650.23
2022-07-29T07:35:50.117Z,100653.58
2022-07-29T07:36:50.529Z,100659.91
2022-07-29T07:37:50.950Z,100646.96
2022-07-29T07:38:51.570Z,100647.58
2022-07-29T07:39:52.903Z,100651.75
2022-07-29T07:40:52.500Z,100654.17
2022-07-29T07:41:53.223Z,100646.59
2022-07-29T07:42:53.438Z,100644.55
2022-07-29T07:43:53.850Z,100646.22
2022-07-29T07:45:12.424Z,100649.8
2022-07-29T07:45:56.223Z,100650.53
2022-07-29T07:46:56.736Z,100652.64
2022-07-29T07:48:01.248Z,100654.88
2022-07-29T07:49:01.885Z,100655.44
2022-07-29T07:50:02.282Z,100656.16
2022-07-29T07:51:02.915Z,100661.68
2022-07-29T07:52:03.428Z,100653.92
2022-07-29T07:53:03.841Z,100658.81
2022-07-29T07:54:04.257Z,100657.02
2022-07-29T07:55:05.084Z,100660.66
2022-07-29T07:56:10.956Z,100656.14
2022-07-29T07:57:09.401Z,100651.73
2022-07-29T07:58:10.227Z,100659.75
2022-07-29T07:59:10.025Z,100656.55
2022-07-29T08:00:11.567Z,100659.42
2022-07-29T08:01:11.302Z,100660.53
2022-07-29T08:02:11.686Z,100655.2
2022-07-29T08:03:17.083Z,100663.81
2022-07-29T08:04:15.580Z,100672.64
2022-07-29T08:05:15.907Z,100662.27
2022-07-29T08:06:16.523Z,100660.31
2022-07-29T08:07:16.946Z,100660.08
2022-07-29T08:08:17.256Z,100659.73
2022-07-29T08:09:28.780Z,100660.3
2022-07-29T08:10:22.490Z,100656.91
2022-07-29T08:11:22.913Z,100660.14
2022-07-29T08:12:23.122Z,100666.52
2022-07-29T08:13:25.994Z,100657.03
2022-07-29T08:14:24.160Z,100669.34
2022-07-29T08:15:24.782Z,100665.39
2022-07-29T08:16:25.370Z,100665.26
2022-07-29T08:17:25.504Z,100658.96
2022-07-29T08:18:26.234Z,100656.17
2022-07-29T08:19:26.336Z,100662.55
2022-07-29T08:20:26.502Z,100666.12
2022-07-29T08:21:26.856Z,100668.79
2022-07-29T08:22:27.481Z,100673.14
2022-07-29T08:23:31.494Z,100668.2
2022-07-29T08:24:27.796Z,100670.74
2022-07-29T08:25:28.124Z,100666.28
2022-07-29T08:26:28.535Z,100668.84
2022-07-29T08:27:44.538Z,100671.62
2022-07-29T08:28:31.932Z,100669.81
2022-07-29T08:29:32.449Z,100669.94
2022-07-29T08:30:33.066Z,100675.05
2022-07-29T08:31:33.130Z,100680.12
2022-07-29T08:32:52.667Z,100679.39
2022-07-29T08:33:35.643Z,100678.45
2022-07-29T08:34:36.169Z,100680.77
2022-07-29T08:35:36.671Z,100676.25
2022-07-29T08:36:36.999Z,100687.19
2022-07-29T08:37:37.317Z,100677.8
2022-07-29T08:38:37.551Z,100678.22
2022-07-29T08:39:38.140Z,100681.89
2022-07-29T08:40:38.454Z,100685.41
2022-07-29T08:41:38.870Z,100685.78
2022-07-29T08:42:39.392Z,100680.89
2022-07-29T08:43:41.240Z,100680.81
2022-07-29T08:44:40.040Z,100684.2
2022-07-29T08:46:45.874Z,100692.05
2022-07-29T08:47:46.400Z,100690.59
2022-07-29T08:48:46.599Z,100695.58
2022-07-29T08:51:52.663Z,100690.52
2022-07-29T08:52:56.549Z,100698.78
2022-07-29T08:53:57.387Z,100692.77
2022-07-29T08:55:03.635Z,100689.88
2022-07-29T08:56:02.411Z,100694.69
2022-07-29T08:57:03.134Z,100698.98
2022-07-29T08:58:02.942Z,100710.31
2022-07-29T08:59:05.311Z,100698.38
2022-07-29T09:00:08.020Z,100697.91
2022-07-29T09:01:04.795Z,100696.77
2022-07-29T09:02:06.423Z,100694.71
2022-07-29T09:03:09.319Z,100707.93
2022-07-29T09:04:11.894Z,100703.12
2022-07-29T09:05:09.963Z,100701.23
2022-07-29T09:06:14.049Z,100697.91
2022-07-29T09:07:15.293Z,100699.57
2022-07-29T09:08:14.066Z,100692.33
2022-07-29T09:09:13.810Z,100692.44
2022-07-29T09:10:13.668Z,100700.6
2022-07-29T09:11:14.904Z,100699.73
2022-07-29T09:12:14.507Z,100692.8
2022-07-29T09:13:17.279Z,100701.91
2022-07-29T09:14:18.002Z,100691.32
2022-07-29T09:15:19.139Z,100698.3
2022-07-29T09:16:37.253Z,100692.23
2022-07-29T09:20:26.942Z,100694.73
2022-07-29T09:22:31.764Z,100693.33
2022-07-29T09:23:29.418Z,100687.06
2022-07-29T09:25:38.346Z,100698.72
2022-07-29T09:26:38.044Z,100698.09
2022-07-29T09:27:36.409Z,100699.27
2022-07-29T09:28:43.287Z,100705.25
2022-07-29T09:29:40.930Z,100707.94
2022-07-29T09:30:54.866Z,100698.23
2022-07-29T09:31:50.583Z,100704.91
2022-07-29T09:33:46.894Z,100704.67
2022-07-29T09:34:47.001Z,100702.4
2022-07-29T09:35:57.056Z,100709.88
2022-07-29T09:36:53.530Z,100698.5
2022-07-29T09:37:51.636Z,100702.11
2022-07-29T09:39:04.035Z,100701.67
2022-07-29T09:39:56.613Z,100699.34
2022-07-29T09:41:03.013Z,100701.5
2022-07-29T09:42:00.575Z,100693.33
2022-07-29T09:43:10.609Z,100700.22
2022-07-29T09:44:03.453Z,100700
2022-07-29T09:45:04.278Z,100700.97
2022-07-29T09:46:16.843Z,100693.64
2022-07-29T09:47:09.480Z,100700.91
2022-07-29T09:49:14.475Z,100693.09
2022-07-29T09:50:14.446Z,100691.59
2022-07-29T09:51:24.146Z,100690.57
2022-07-29T09:52:16.604Z,100689.16
2022-07-29T09:55:20.411Z,100695.88
2022-07-29T09:56:19.500Z,100696.2
2022-07-29T09:57:30.844Z,100691.99
2022-07-29T09:58:23.820Z,100689.87
2022-07-29T09:59:24.021Z,100683.45
2022-07-29T10:00:24.550Z,100684.96
2022-07-29T10:01:30.691Z,100697.16
2022-07-29T10:02:33.055Z,100685.34
2022-07-29T10:03:30.400Z,100688.91
2022-07-29T10:05:36.804Z,100691
2022-07-29T10:06:36.153Z,100695.23
2022-07-29T10:08:39.442Z,100684.29
2022-07-29T10:09:40.278Z,100683.84
2022-07-29T10:10:42.603Z,100689.09
2022-07-29T10:11:49.319Z,100685.25
2022-07-29T10:13:46.761Z,100679.89
2022-07-29T10:14:45.011Z,100677.88
2022-07-29T10:15:46.510Z,100682.14
2022-07-29T10:16:45.782Z,100678.27
2022-07-29T10:17:46.569Z,100680.05
2022-07-29T10:18:46.479Z,100679.98
2022-07-29T10:19:48.533Z,100683.05
2022-07-29T10:20:47.110Z,100681.74
2022-07-29T10:21:47.930Z,100670.41
2022-07-29T10:22:53.728Z,100674.64
2022-07-29T10:23:52.144Z,100672.33
2022-07-29T10:24:51.844Z,100672.45
2022-07-29T10:25:52.149Z,100673.09
2022-07-29T10:26:54.717Z,100670.66
2022-07-29T10:27:53.799Z,100670.86
2022-07-29T10:28:53.506Z,100677.64
2022-07-29T10:29:55.042Z,100671.38
2022-07-29T10:42:33.905Z,100669.31
2022-07-29T10:43:29.910Z,100667.05
2022-07-29T10:44:26.181Z,100664.47
2022-07-29T10:45:24.735Z,100669.92
2022-07-29T10:46:26.350Z,100668.09
2022-07-29T10:47:27.113Z,100667.28
2022-07-29T10:48:26.038Z,100667.95
2022-07-29T10:49:30.603Z,100666.48
2022-07-29T10:50:28.864Z,100663.55
2022-07-29T10:56:34.042Z,100675.5
2022-07-29T10:57:54.151Z,100670.91
2022-07-29T10:58:35.785Z,100670.41
2022-07-29T10:59:36.676Z,100664.8
2022-07-29T11:00:36.416Z,100668.92
2022-07-29T11:01:39.142Z,100669.82
2022-07-29T11:08:47.026Z,100668.92
2022-07-29T11:10:49.903Z,100673.08
2022-07-29T11:11:51.534Z,100671.45
2022-07-29T11:12:49.701Z,100662.84
2022-07-29T11:15:57.187Z,100663.88
2022-07-29T11:22:11.577Z,100661.36
2022-07-29T11:24:28.935Z,100658.91
2022-07-29T11:25:50.370Z,100660.54
2022-07-29T11:26:25.113Z,100660.83
2022-07-29T11:28:30.957Z,100659.27
2022-07-29T11:29:30.449Z,100657.68
2022-07-29T11:33:55.871Z,100666.79
2022-07-29T11:34:39.195Z,100666.47
2022-07-29T11:35:39.963Z,100668.67
2022-07-29T11:37:42.416Z,100671.28
2022-07-29T11:38:43.615Z,100670.11
2022-07-29T11:41:46.504Z,100673.03
2022-07-29T11:42:47.341Z,100672
2022-07-29T11:45:54.109Z,100671.34
2022-07-29T11:46:55.347Z,100671.95
2022-07-29T11:48:00.847Z,100669.69
2022-07-29T11:49:00.766Z,100671.44
2022-07-29T11:50:00.802Z,100671.26
2022-07-29T11:51:00.477Z,100675.97
2022-07-29T11:52:00.998Z,100666.4
2022-07-29T11:53:01.537Z,100667.25
2022-07-29T11:54:05.210Z,100668
2022-07-29T11:55:09.825Z,100671.77
2022-07-29T11:56:10.048Z,100669.5
2022-07-29T11:57:09.035Z,100666.62
2022-07-29T11:58:09.450Z,100669.12
2022-07-29T11:59:09.145Z,100668.5
2022-07-29T12:00:12.526Z,100667.95
2022-07-29T12:01:16.533Z,100668.3
2022-07-29T12:04:22.809Z,100667.08
2022-07-29T12:06:24.446Z,100672.12
2022-07-29T12:07:32.634Z,100669.81
2022-07-29T12:08:27.843Z,100665.38
2022-07-29T12:09:27.994Z,100666.4
2022-07-29T12:10:33.286Z,100663.09
2022-07-29T12:11:33.190Z,100663.48
2022-07-29T12:12:34.015Z,100666.63
2022-07-29T12:13:40.362Z,100664.84
2022-07-29T12:14:37.823Z,100667.22
2022-07-29T12:15:45.723Z,100662.22
2022-07-29T12:16:39.307Z,100668.58
2022-07-29T12:17:39.579Z,100664.48
2022-07-29T12:18:40.209Z,100664.36
2022-07-29T12:19:49.314Z,100663.34
2022-07-29T12:20:43.893Z,100665.16
2022-07-29T12:21:56.273Z,100665.66
2022-07-29T12:22:44.719Z,100666.17
2022-07-29T12:23:54.084Z,100661.87
2022-07-29T12:24:48.134Z,100668.85
2022-07-29T12:25:50.012Z,100667.32
2022-07-29T12:26:57.970Z,100668.08
2022-07-29T12:28:51.522Z,100666.72
2022-07-29T12:30:54.611Z,100671.67
2022-07-29T12:31:57.733Z,100663.17
2022-07-29T12:32:55.953Z,100663.73
2022-07-29T12:33:56.471Z,100665.92
2022-07-29T12:34:56.585Z,100665.33
2022-07-29T12:36:06.915Z,100666.98
2022-07-29T12:37:00.436Z,100661.65
2022-07-29T12:38:00.914Z,100658.84
2022-07-29T12:39:01.474Z,100661.36
2022-07-29T12:40:02.579Z,100656.34
2022-07-29T12:41:04.318Z,100656.95
2022-07-29T12:42:15.201Z,100660.33
2022-07-29T12:43:18.243Z,100667.88
2022-07-29T12:44:11.487Z,100663.86
2022-07-29T12:45:11.803Z,100658.12
2022-07-29T12:46:16.026Z,100664.45
2022-07-29T12:47:13.873Z,100664.86
2022-07-29T12:48:14.587Z,100657.43
2022-07-29T12:49:23.474Z,100655.43
2022-07-29T12:50:16.444Z,100657.95
2022-07-29T12:51:16.565Z,100655.38
2022-07-29T12:53:19.644Z,100654.7
2022-07-29T12:54:19.852Z,100655.69
2022-07-29T12:56:41.699Z,100655.98
2022-07-29T12:57:23.047Z,100656.98
2022-07-29T12:59:24.506Z,100657.47
2022-07-29T13:00:25.502Z,100658.4
2022-07-29T13:01:25.833Z,100661.4
2022-07-29T13:02:26.042Z,100659.11
2022-07-29T13:03:26.362Z,100660.39
2022-07-29T13:06:51.083Z,100661.58
2022-07-29T13:07:54.276Z,100668.75
2022-07-29T13:08:37.159Z,100661.08
2022-07-29T13:10:42.073Z,100661.17
2022-07-29T13:14:05.878Z,100668.02
2022-07-29T13:14:54.698Z,100674.44
2022-07-29T13:16:08.482Z,100672.5
2022-07-29T13:18:01.012Z,100670.63
2022-07-29T13:19:12.335Z,100676.27
2022-07-29T13:20:10.206Z,100676.58
2022-07-29T13:21:16.566Z,100684.77